LA-basin-labeled-12 Dr Wm Bowen CSUNYou can see it in the cloud shapes, and Malibu Hills has a weather station at 1575 feet. “G” means Gusts, bursts of air.

Check out these directions & gust speeds:

Weather Conditions for:
MALIBU HILLS, CA.  MBUC1  (RAWS)
Elev: 1575 ft; Latitude: 34.061561; Longitude: -118.645219

Time Temp. Wind Wind
    Direction Speed
(PST) (f)   (mph)
15 Dec 8:56 pm PST 48 SW 25G48
15 Dec 7:56 pm PST 48 N 26G48
15 Dec 6:56 pm PST 50 NNE 25G48
15 Dec 5:56 pm PST 50 SSW 24G37
15 Dec 4:56 pm PST 53 N 23G33
15 Dec 3:56 pm PST 55 E 12G29
15 Dec 2:56 pm PST 58 SSW 7G29
15 Dec 1:56 pm PST 58 N 7G28
15 Dec 12:56 pm PST 58 S 7G26
15 Dec 11:56 am PST 54 SW 12G40
15 Dec 10:56 am PST 49 NE 20G54
15 Dec 9:56 am PST 47 SW 30G55
15 Dec 8:56 am PST 44 SSW 29G58
15 Dec 7:56 am PST 43 NE 25G51
15 Dec 6:56 am PST 44 S 26G48
15 Dec 5:56 am PST 42 WNW 27G54
15 Dec 4:56 am PST 43 S 22G48
15 Dec 3:56 am PST 42 S 34G61
15 Dec 2:56 am PST 44 S 35G60
15 Dec 1:56 am PST 43 NNE 37G57
15 Dec 12:56 am PST 45 S 33G68
14 Dec 11:56 pm PST 44 S 33G63
14 Dec 10:56 pm PST 43 WNW 31G58
14 Dec 9:56 pm PST 43 SE 29G54
14 Dec 8:56 pm PST 45 SSE 29G49
14 Dec 7:56 pm PST 45 SSW 29G51
14 Dec 6:56 pm PST 45 NE 21G43
14 Dec 5:56 pm PST 46 NNE 17G37
14 Dec 4:56 pm PST 49 WNW 21G40
14 Dec 3:56 pm PST 51 E 19G40
14 Dec 2:56 pm PST 53 NE 20G41
14 Dec 1:56 pm PST 54 WNW 27G52
14 Dec 12:56 pm PST 52 NW 26G47
14 Dec 11:56 am PST 52 SW 17G39
14 Dec 10:56 am PST 49 ESE 23G51
14 Dec 9:56 am PST 47 WNW 20G51
14 Dec 8:56 am PST 44 WNW 35G50
14 Dec 7:56 am PST 43 WNW 27G40
14 Dec 6:56 am PST 41 E 21G33
14 Dec 5:56 am PST 42 SW 26G38
14 Dec 4:56 am PST 41 NE 25G39
14 Dec 3:56 am PST 44 ENE 26G46
14 Dec 2:56 am PST 44 NNW 30G46
14 Dec 1:56 am PST 46 NNW 29G41
14 Dec 12:56 am PST 47 NNE 27G53
13 Dec 11:56 pm PST 46 NW 35G50
13 Dec 10:56 pm PST 47 NW 37G57
13 Dec 9:56 pm PST 48 NW 39G73
13 Dec 8:56 pm PST 50 WNW 22G41
13 Dec 7:56 pm PST 50 NW 20G48
13 Dec 6:56 pm PST 53 WSW 13G28
13 Dec 5:56 pm PST 50 WSW 7G36
13 Dec 4:56 pm PST 53 SW 8G35
13 Dec 3:56 pm PST 56 NNE 8G31
13 Dec 2:56 pm PST 57 SSW 10G31
13 Dec 1:56 pm PST 62 ENE 7G28
13 Dec 12:56 pm PST 63 ENE 8G26
13 Dec 11:56 am PST 61 ESE 7G26
13 Dec 10:56 am PST 60 W 7G25
13 Dec 9:56 am PST 61 WNW 7G24
13 Dec 8:56 am PST 57 NE 7G20
13 Dec 7:56 am PST 52 NE 7G18
13 Dec 6:56 am PST 52 NNW 9G18
13 Dec 5:56 am PST 51 NE 7G09
13 Dec 4:56 am PST 51 SSW 17G19
13 Dec 3:56 am PST 52 NNW 12G20
13 Dec 2:56 am PST 54 WSW 15G26
13 Dec 1:56 am PST 54 NW 21G42
13 Dec 12:56 am PST 56 SSE 27G56
12 Dec 11:56 pm PST 56 S 31G49
12 Dec 10:56 pm PST 55 SW 29G55

 

http://www.wrh.noaa.gov/mesowest/getobext.php?wfo=lox&sid=MBUC1&num=72&raw=0